createdAt,value
2018-12-09T00:02:10.973Z,6.97
2018-12-09T00:07:17.064Z,6.94
2018-12-09T00:12:21.994Z,6.93
2018-12-09T00:17:26.866Z,7.08
2018-12-09T00:22:30.820Z,7.09
2018-12-09T00:27:33.333Z,6.99
2018-12-09T00:32:35.656Z,6.98
2018-12-09T00:37:38.098Z,6.99
2018-12-09T00:42:43.577Z,7.11
2018-12-09T00:47:44.824Z,7.14
2018-12-09T00:52:47.113Z,7.16
2018-12-09T00:57:49.424Z,7.16
2018-12-09T01:02:51.677Z,7.16
2018-12-09T01:07:53.951Z,7.19
2018-12-09T01:12:56.267Z,7.30
2018-12-09T01:17:58.595Z,7.42
2018-12-09T01:23:00.897Z,7.48
2018-12-09T01:28:03.363Z,7.43
2018-12-09T01:33:05.741Z,7.39
2018-12-09T01:38:08.045Z,7.34
2018-12-09T01:43:10.432Z,7.30
2018-12-09T01:48:12.856Z,7.15
2018-12-09T01:53:26.970Z,7.04
2018-12-09T01:58:29.548Z,6.97
2018-12-09T02:03:32.144Z,6.97
2018-12-09T02:08:34.503Z,6.99
2018-12-09T02:13:36.854Z,7.04
2018-12-09T02:18:39.260Z,7.03
2018-12-09T02:23:41.879Z,7.03
2018-12-09T02:28:44.210Z,7.07
2018-12-09T02:33:46.645Z,7.11
2018-12-09T02:38:49.242Z,7.21
2018-12-09T02:43:51.581Z,7.27
2018-12-09T02:48:53.880Z,7.35
2018-12-09T02:53:56.335Z,7.41
2018-12-09T02:58:58.855Z,7.55
2018-12-09T03:04:01.284Z,7.56
2018-12-09T03:09:06.497Z,7.55
2018-12-09T03:14:09.950Z,7.43
2018-12-09T03:19:12.300Z,7.34
2018-12-09T03:24:14.653Z,7.18
2018-12-09T03:29:17.686Z,7.09
2018-12-09T03:34:19.967Z,7.11
2018-12-09T03:39:22.668Z,7.16
2018-12-09T03:44:24.947Z,7.25
2018-12-09T03:49:27.291Z,7.34
2018-12-09T03:54:29.577Z,7.30
2018-12-09T03:59:31.922Z,7.29
2018-12-09T04:04:35.483Z,7.37
2018-12-09T04:09:38.190Z,7.32
2018-12-09T04:14:40.596Z,7.19
2018-12-09T04:19:42.882Z,6.80
2018-12-09T04:24:45.138Z,6.58
2018-12-09T04:29:47.479Z,6.45
2018-12-09T04:34:49.951Z,6.29
2018-12-09T04:39:52.866Z,6.23
2018-12-09T04:44:55.112Z,6.25
2018-12-09T04:49:57.381Z,6.21
2018-12-09T04:54:59.632Z,6.13
2018-12-09T05:00:13.625Z,6.09
2018-12-09T05:05:15.887Z,6.22
2018-12-09T05:10:18.309Z,6.10
2018-12-09T05:15:20.603Z,6.19
2018-12-09T05:20:22.844Z,6.28
2018-12-09T05:25:25.108Z,6.35
2018-12-09T05:30:27.339Z,6.34
2018-12-09T05:35:29.606Z,6.38
2018-12-09T05:40:49.489Z,6.37
2018-12-09T05:45:51.733Z,6.46
2018-12-09T05:50:54.062Z,6.37
2018-12-09T05:55:57.113Z,6.37
2018-12-09T06:00:59.604Z,6.53
2018-12-09T06:06:01.984Z,6.57
2018-12-09T06:11:04.442Z,6.64
2018-12-09T06:16:06.680Z,6.55
2018-12-09T06:21:08.961Z,6.38
2018-12-09T06:26:11.205Z,6.30
2018-12-09T06:31:13.732Z,6.24
2018-12-09T06:36:16.023Z,6.40
2018-12-09T06:41:18.303Z,6.29
2018-12-09T06:46:20.542Z,6.37
2018-12-09T06:51:22.973Z,6.49
2018-12-09T06:56:26.459Z,6.47
2018-12-09T07:01:30.746Z,6.58
2018-12-09T07:06:34.168Z,6.53
2018-12-09T07:11:36.437Z,6.54
2018-12-09T07:21:54.284Z,6.69
2018-12-09T07:26:56.561Z,6.60
2018-12-09T07:31:58.989Z,6.62
2018-12-09T07:37:01.293Z,6.58
2018-12-09T07:42:03.544Z,6.59
2018-12-09T07:47:06.075Z,6.62
2018-12-09T07:52:08.474Z,6.66
2018-12-09T07:57:11.100Z,6.65
2018-12-09T08:02:13.343Z,6.80
2018-12-09T08:07:15.645Z,6.74
2018-12-09T08:12:18.016Z,6.84
2018-12-09T08:17:20.239Z,6.88
2018-12-09T08:22:22.511Z,7.08
2018-12-09T08:27:24.875Z,7.31
2018-12-09T08:32:27.095Z,7.41
2018-12-09T08:37:29.325Z,7.35
2018-12-09T08:42:31.621Z,7.33
2018-12-09T08:47:33.964Z,7.32
2018-12-09T08:52:36.202Z,7.49
2018-12-09T08:57:38.431Z,7.43
2018-12-09T09:02:40.667Z,7.43
2018-12-09T09:07:43.044Z,7.47
2018-12-09T09:12:45.366Z,7.65
2018-12-09T09:17:47.755Z,7.64
2018-12-09T09:22:50.046Z,7.69
2018-12-09T09:27:53.450Z,7.69
2018-12-09T09:32:55.723Z,7.72
2018-12-09T09:37:58.917Z,7.79
2018-12-09T09:43:01.214Z,7.80
2018-12-09T09:48:04.868Z,7.81
2018-12-09T09:53:07.336Z,7.76
2018-12-09T09:58:09.581Z,7.72
2018-12-09T10:03:12.055Z,7.66
2018-12-09T10:08:14.399Z,7.61
2018-12-09T10:13:16.919Z,7.69
2018-12-09T10:18:19.165Z,7.70
2018-12-09T10:23:21.442Z,7.69
2018-12-09T10:28:24.812Z,7.67
2018-12-09T10:33:27.049Z,7.69
2018-12-09T10:38:29.339Z,7.69
2018-12-09T10:43:31.607Z,7.67
2018-12-09T10:48:33.880Z,7.71
2018-12-09T10:53:36.209Z,7.73
2018-12-09T10:58:38.447Z,7.74
2018-12-09T11:03:40.720Z,7.82
2018-12-09T11:08:42.967Z,7.80
2018-12-09T11:13:45.353Z,7.84
2018-12-09T11:18:47.625Z,7.85
2018-12-09T11:23:49.863Z,7.93
2018-12-09T11:28:52.515Z,8.02
2018-12-09T11:33:54.765Z,8.00
2018-12-09T11:38:56.988Z,8.00
2018-12-09T11:43:59.352Z,7.98
2018-12-09T11:49:01.654Z,8.08
2018-12-09T11:54:04.067Z,8.07
2018-12-09T11:59:06.301Z,8.04
2018-12-09T12:04:08.564Z,8.00
2018-12-09T12:09:10.804Z,7.99
2018-12-09T12:14:13.191Z,7.98
2018-12-09T12:19:15.458Z,7.98
2018-12-09T12:24:17.701Z,7.92
2018-12-09T12:29:19.942Z,7.74
2018-12-09T12:34:22.364Z,7.36
2018-12-09T12:39:24.894Z,6.85
2018-12-09T12:44:27.344Z,6.51
2018-12-09T12:49:29.779Z,6.42
2018-12-09T12:54:32.127Z,6.37
2018-12-09T12:59:34.377Z,6.28
2018-12-09T13:04:36.645Z,6.31
2018-12-09T13:09:38.950Z,6.32
2018-12-09T13:14:41.214Z,6.35
2018-12-09T13:19:43.479Z,6.36
2018-12-09T13:24:45.721Z,6.37
2018-12-09T13:29:47.962Z,6.41
2018-12-09T13:34:51.455Z,6.46
2018-12-09T13:39:53.687Z,6.42
2018-12-09T13:44:55.927Z,6.38
2018-12-09T13:49:58.212Z,6.26
2018-12-09T13:55:00.464Z,6.07
2018-12-09T14:00:03.273Z,5.88
2018-12-09T14:05:05.833Z,5.72
2018-12-09T14:10:08.201Z,5.67
2018-12-09T14:15:10.741Z,5.63
2018-12-09T14:20:13.107Z,5.62
2018-12-09T14:25:15.569Z,5.66
2018-12-09T14:30:17.850Z,5.68
2018-12-09T14:35:20.138Z,5.61
2018-12-09T14:40:22.503Z,5.56
2018-12-09T14:45:24.863Z,5.44
2018-12-09T14:50:27.103Z,5.31
2018-12-09T14:55:29.368Z,5.35
2018-12-09T15:00:31.654Z,5.37
2018-12-09T15:05:35.045Z,5.29
2018-12-09T15:10:37.267Z,5.10
2018-12-09T15:15:39.542Z,5.07
2018-12-09T15:20:41.809Z,4.99
2018-12-09T15:25:44.072Z,5.07
2018-12-09T15:30:46.336Z,4.98
2018-12-09T15:35:48.589Z,4.96
2018-12-09T15:40:51.994Z,5.14
2018-12-09T15:45:54.239Z,5.17
2018-12-09T15:50:56.651Z,5.21
2018-12-09T15:55:58.933Z,5.23
2018-12-09T16:01:01.200Z,5.26
2018-12-09T16:06:03.596Z,5.33
2018-12-09T16:11:05.883Z,5.30
2018-12-09T16:16:08.152Z,5.38
2018-12-09T16:21:10.454Z,5.41
2018-12-09T16:26:12.764Z,5.34
2018-12-09T16:31:14.993Z,5.35
2018-12-09T16:36:17.216Z,5.31
2018-12-09T16:41:19.511Z,5.35
2018-12-09T16:46:21.775Z,5.33
2018-12-09T16:51:24.031Z,5.26
2018-12-09T16:56:26.366Z,5.35
2018-12-09T17:01:29.727Z,5.40
2018-12-09T17:06:31.965Z,5.44
2018-12-09T17:11:34.384Z,5.41
2018-12-09T17:16:36.627Z,5.43
2018-12-09T17:21:40.272Z,5.46
2018-12-09T17:26:42.552Z,5.58
2018-12-09T17:31:45.615Z,5.67
2018-12-09T17:36:48.029Z,5.65
2018-12-09T17:41:51.861Z,5.58
2018-12-09T17:46:54.170Z,5.63
2018-12-09T17:51:56.520Z,5.66
2018-12-09T17:56:58.792Z,5.67
2018-12-09T18:02:01.043Z,5.66
2018-12-09T18:07:03.353Z,5.79
2018-12-09T18:12:05.764Z,5.80
2018-12-09T18:17:09.193Z,5.86
2018-12-09T18:22:11.457Z,5.87
2018-12-09T18:27:13.684Z,5.83
2018-12-09T18:32:16.248Z,5.95
2018-12-09T18:37:18.980Z,5.95
2018-12-09T18:42:21.238Z,5.94
2018-12-09T18:47:23.472Z,5.90
2018-12-09T18:52:25.735Z,5.79
2018-12-09T18:57:28.038Z,5.73
2018-12-09T19:02:30.587Z,5.78
2018-12-09T19:07:32.951Z,5.78
2018-12-09T19:12:35.230Z,5.75
2018-12-09T19:17:37.553Z,5.79
2018-12-09T19:22:40.134Z,5.73
2018-12-09T19:27:42.383Z,5.82
2018-12-09T19:32:44.820Z,5.88
2018-12-09T19:37:47.177Z,5.84
2018-12-09T19:42:49.484Z,5.85
2018-12-09T19:47:51.793Z,5.80
2018-12-09T19:52:54.091Z,5.74
2018-12-09T19:57:56.334Z,5.70
2018-12-09T20:02:58.604Z,5.68
2018-12-09T20:08:00.891Z,5.54
2018-12-09T20:13:03.201Z,5.51
2018-12-09T20:18:06.549Z,5.50
2018-12-09T20:23:08.786Z,5.43
2018-12-09T20:28:11.108Z,5.39
2018-12-09T20:33:13.366Z,5.50
2018-12-09T20:38:15.679Z,5.56
2018-12-09T20:43:17.912Z,5.53
2018-12-09T20:48:20.181Z,5.51
2018-12-09T20:53:22.480Z,5.46
2018-12-09T20:58:24.951Z,5.53
2018-12-09T21:03:27.223Z,5.53
2018-12-09T21:08:29.564Z,5.53
2018-12-09T21:13:32.645Z,5.57
2018-12-09T21:18:34.874Z,5.52
2018-12-09T21:23:37.757Z,5.43
2018-12-09T21:28:39.996Z,5.39
2018-12-09T21:33:42.311Z,5.30
2018-12-09T21:38:44.575Z,4.04
2018-12-09T21:43:46.803Z,3.51
2018-12-09T21:48:49.043Z,3.49
2018-12-09T21:53:51.319Z,3.39
2018-12-09T21:58:53.602Z,3.35
2018-12-09T22:03:55.917Z,3.39
2018-12-09T22:08:58.239Z,3.32
2018-12-09T22:14:00.483Z,3.69
2018-12-09T22:19:02.925Z,3.93
2018-12-09T22:24:05.181Z,4.17
2018-12-09T22:29:07.430Z,4.39
2018-12-09T22:34:09.693Z,4.33
2018-12-09T22:39:12.169Z,4.30
2018-12-09T22:44:14.499Z,4.13
2018-12-09T22:49:16.819Z,4.02
2018-12-09T22:54:19.065Z,3.81
2018-12-09T22:59:21.383Z,3.63
2018-12-09T23:04:24.007Z,3.49
2018-12-09T23:09:26.253Z,3.50
2018-12-09T23:14:28.704Z,3.52
2018-12-09T23:19:31.333Z,3.59
2018-12-09T23:24:33.620Z,3.59
2018-12-09T23:29:36.091Z,3.80
2018-12-09T23:34:38.367Z,3.96
2018-12-09T23:39:40.743Z,3.90
2018-12-09T23:44:43.128Z,3.78
2018-12-09T23:49:46.099Z,3.65
2018-12-09T23:54:48.342Z,3.60
2018-12-09T23:59:50.587Z,3.63
